createdAt,value
2018-12-09T00:01:20.818Z,1.10
2018-12-09T00:03:54.043Z,1.17
2018-12-09T00:06:26.093Z,1.53
2018-12-09T00:08:56.818Z,1.67
2018-12-09T00:11:28.609Z,1.50
2018-12-09T00:13:59.299Z,1.30
2018-12-09T00:16:29.437Z,1.30
2018-12-09T00:19:01.134Z,1.20
2018-12-09T00:21:32.217Z,1.23
2018-12-09T00:24:03.925Z,1.80
2018-12-09T00:26:34.260Z,1.73
2018-12-09T00:29:05.985Z,1.60
2018-12-09T00:31:36.587Z,1.70
2018-12-09T00:34:08.105Z,1.67
2018-12-09T00:36:37.929Z,1.87
2018-12-09T00:39:09.491Z,1.67
2018-12-09T00:41:39.878Z,1.87
2018-12-09T00:44:11.656Z,1.70
2018-12-09T00:46:43.407Z,1.30
2018-12-09T00:49:14.637Z,1.40
2018-12-09T00:51:45.238Z,1.87
2018-12-09T00:54:16.647Z,1.93
2018-12-09T00:56:46.906Z,1.50
2018-12-09T00:59:17.279Z,1.67
2018-12-09T01:02:01.943Z,1.47
2018-12-09T01:04:33.563Z,1.50
2018-12-09T01:07:04.039Z,1.33
2018-12-09T01:09:35.241Z,1.87
2018-12-09T01:12:06.618Z,1.40
2018-12-09T01:14:37.103Z,1.40
2018-12-09T01:17:07.248Z,1.87
2018-12-09T01:19:38.382Z,1.90
2018-12-09T01:22:08.357Z,1.80
2018-12-09T01:24:38.761Z,2.47
2018-12-09T01:27:08.892Z,2.50
2018-12-09T01:29:39.280Z,1.77
2018-12-09T01:32:09.773Z,2.23
2018-12-09T01:34:43.585Z,1.93
2018-12-09T01:37:13.927Z,1.90
2018-12-09T01:39:43.831Z,2.90
2018-12-09T01:42:16.116Z,1.83
2018-12-09T01:44:46.471Z,2.43
2018-12-09T01:47:16.289Z,2.37
2018-12-09T01:49:46.343Z,2.00
2018-12-09T01:52:16.422Z,1.90
2018-12-09T01:54:46.885Z,1.53
2018-12-09T01:57:17.366Z,1.70
2018-12-09T01:59:48.438Z,1.60
2018-12-09T02:02:18.726Z,1.53
2018-12-09T02:04:48.531Z,1.50
2018-12-09T02:07:49.348Z,2.03
2018-12-09T02:10:20.569Z,2.17
2018-12-09T02:12:51.721Z,1.70
2018-12-09T02:15:22.462Z,1.73
2018-12-09T02:17:52.529Z,1.67
2018-12-09T02:20:22.612Z,2.00
2018-12-09T02:22:52.997Z,2.30
2018-12-09T02:25:23.160Z,2.57
2018-12-09T02:27:54.455Z,2.33
2018-12-09T02:30:24.926Z,2.30
2018-12-09T02:32:55.268Z,2.20
2018-12-09T02:35:25.644Z,1.90
2018-12-09T02:37:55.721Z,2.23
2018-12-09T02:40:25.668Z,2.23
2018-12-09T02:42:56.187Z,2.87
2018-12-09T02:45:25.797Z,2.10
2018-12-09T02:47:55.648Z,1.83
2018-12-09T02:50:26.872Z,2.23
2018-12-09T02:52:56.917Z,2.27
2018-12-09T02:55:27.758Z,3.17
2018-12-09T02:57:57.633Z,2.83
2018-12-09T03:00:27.989Z,3.27
2018-12-09T03:02:57.949Z,3.90
2018-12-09T03:05:27.895Z,2.87
2018-12-09T03:07:57.642Z,2.90
2018-12-09T03:10:28.533Z,2.80
2018-12-09T03:12:59.313Z,3.30
2018-12-09T03:15:29.615Z,3.03
2018-12-09T03:17:59.218Z,3.17
2018-12-09T03:20:29.403Z,3.47
2018-12-09T03:23:00.000Z,2.53
2018-12-09T03:25:29.880Z,3.27
2018-12-09T03:27:59.824Z,2.53
2018-12-09T03:30:30.062Z,4.70
2018-12-09T03:32:59.650Z,2.53
2018-12-09T03:35:29.541Z,2.50
2018-12-09T03:37:59.564Z,2.30
2018-12-09T03:40:29.268Z,2.50
2018-12-09T03:42:58.976Z,2.70
2018-12-09T03:45:29.535Z,2.50
2018-12-09T03:47:59.786Z,2.80
2018-12-09T03:50:29.841Z,3.00
2018-12-09T03:52:59.941Z,2.37
2018-12-09T03:55:30.094Z,2.43
2018-12-09T03:58:00.474Z,2.43
2018-12-09T04:00:30.489Z,3.00
2018-12-09T04:02:59.995Z,2.50
2018-12-09T04:05:30.174Z,2.80
2018-12-09T04:08:00.384Z,2.77
2018-12-09T04:10:30.176Z,2.60
2018-12-09T04:13:00.243Z,2.90
2018-12-09T04:15:33.000Z,2.00
2018-12-09T04:18:02.793Z,2.60
2018-12-09T04:20:32.683Z,2.80
2018-12-09T04:23:02.837Z,2.40
2018-12-09T04:25:33.785Z,2.20
2018-12-09T04:28:03.414Z,3.23
2018-12-09T04:30:33.409Z,2.17
2018-12-09T04:33:03.283Z,2.13
2018-12-09T04:35:33.317Z,2.30
2018-12-09T04:38:03.585Z,2.20
2018-12-09T04:40:34.061Z,2.33
2018-12-09T04:43:03.701Z,2.43
2018-12-09T04:45:33.618Z,1.93
2018-12-09T04:48:03.332Z,1.60
2018-12-09T04:50:33.473Z,2.20
2018-12-09T04:53:04.452Z,2.20
2018-12-09T04:55:34.138Z,2.37
2018-12-09T04:58:04.026Z,1.80
2018-12-09T05:00:44.748Z,1.83
2018-12-09T05:03:14.328Z,2.10
2018-12-09T05:05:43.984Z,1.70
2018-12-09T05:08:13.863Z,2.07
2018-12-09T05:10:43.809Z,1.97
2018-12-09T05:13:13.988Z,1.63
2018-12-09T05:15:45.388Z,1.80
2018-12-09T05:18:15.113Z,2.00
2018-12-09T05:20:44.955Z,1.63
2018-12-09T05:23:15.542Z,2.50
2018-12-09T05:25:45.365Z,1.83
2018-12-09T05:28:15.416Z,2.20
2018-12-09T05:30:45.817Z,2.57
2018-12-09T05:33:15.742Z,2.00
2018-12-09T05:35:45.936Z,2.03
2018-12-09T05:38:16.121Z,2.03
2018-12-09T05:40:46.183Z,1.80
2018-12-09T05:43:18.008Z,2.20
2018-12-09T05:45:48.241Z,1.50
2018-12-09T05:48:17.909Z,1.83
2018-12-09T05:50:48.317Z,1.93
2018-12-09T05:53:18.357Z,1.87
2018-12-09T05:55:48.315Z,2.10
2018-12-09T05:58:18.916Z,2.17
2018-12-09T06:00:48.969Z,1.87
2018-12-09T06:03:18.849Z,2.33
2018-12-09T06:05:49.198Z,1.67
2018-12-09T06:08:18.875Z,1.70
2018-12-09T06:10:49.122Z,1.70
2018-12-09T06:13:19.957Z,2.00
2018-12-09T06:15:49.934Z,2.00
2018-12-09T06:18:19.688Z,3.03
2018-12-09T06:20:50.951Z,2.03
2018-12-09T06:23:21.175Z,2.30
2018-12-09T06:25:51.648Z,1.83
2018-12-09T06:28:21.341Z,1.87
2018-12-09T06:30:51.640Z,2.20
2018-12-09T06:33:21.473Z,2.10
2018-12-09T06:35:51.662Z,2.70
2018-12-09T06:38:21.607Z,2.10
2018-12-09T06:40:51.429Z,2.13
2018-12-09T06:43:22.819Z,1.73
2018-12-09T06:45:52.645Z,1.83
2018-12-09T06:48:22.621Z,1.93
2018-12-09T06:50:53.280Z,2.00
2018-12-09T06:53:23.113Z,1.83
2018-12-09T06:55:53.100Z,2.20
2018-12-09T06:58:24.354Z,1.80
2018-12-09T07:00:54.793Z,1.93
2018-12-09T07:03:25.240Z,1.93
2018-12-09T07:05:55.131Z,1.40
2018-12-09T07:08:25.343Z,1.70
2018-12-09T07:10:55.386Z,1.20
2018-12-09T07:13:25.688Z,0.87
2018-12-09T07:15:56.171Z,1.10
2018-12-09T07:18:26.692Z,0.80
2018-12-09T07:20:56.608Z,1.73
2018-12-09T07:23:27.416Z,2.03
2018-12-09T07:25:57.524Z,1.33
2018-12-09T07:28:28.024Z,1.50
2018-12-09T07:30:59.409Z,1.60
2018-12-09T07:33:29.636Z,1.80
2018-12-09T07:35:59.949Z,1.80
2018-12-09T07:38:30.731Z,2.00
2018-12-09T07:41:00.667Z,1.13
2018-12-09T07:43:31.705Z,1.10
2018-12-09T07:46:02.313Z,1.10
2018-12-09T07:48:32.513Z,1.07
2018-12-09T07:51:03.092Z,1.00
2018-12-09T07:53:32.912Z,1.30
2018-12-09T07:56:03.817Z,1.87
2018-12-09T07:58:33.557Z,1.10
2018-12-09T08:01:03.692Z,1.30
2018-12-09T08:03:33.573Z,1.30
2018-12-09T08:06:03.853Z,0.90
2018-12-09T08:08:34.070Z,1.00
2018-12-09T08:11:05.321Z,1.20
2018-12-09T08:13:35.281Z,1.30
2018-12-09T08:16:06.144Z,2.23
2018-12-09T08:18:36.297Z,1.53
2018-12-09T08:21:06.981Z,1.37
2018-12-09T08:23:37.143Z,1.30
2018-12-09T08:26:07.450Z,1.40
2018-12-09T08:28:37.705Z,1.10
2018-12-09T08:31:08.381Z,0.90
2018-12-09T08:33:38.622Z,1.10
2018-12-09T08:36:09.434Z,1.00
2018-12-09T08:38:39.466Z,0.90
2018-12-09T08:41:09.549Z,0.77
2018-12-09T08:43:40.035Z,1.00
2018-12-09T08:46:10.651Z,0.77
2018-12-09T08:48:40.604Z,0.70
2018-12-09T08:51:10.776Z,0.90
2018-12-09T08:53:40.641Z,1.10
2018-12-09T08:56:11.131Z,0.80
2018-12-09T08:58:41.853Z,1.17
2018-12-09T09:01:12.272Z,1.37
2018-12-09T09:03:42.282Z,1.67
2018-12-09T09:06:13.093Z,1.90
2018-12-09T09:08:43.228Z,1.23
2018-12-09T09:11:13.919Z,1.40
2018-12-09T09:13:47.075Z,1.33
2018-12-09T09:16:16.977Z,1.60
2018-12-09T09:18:47.526Z,2.70
2018-12-09T09:21:18.874Z,1.30
2018-12-09T09:23:49.101Z,1.47
2018-12-09T09:26:19.525Z,1.53
2018-12-09T09:28:49.944Z,1.47
2018-12-09T09:31:21.388Z,1.60
2018-12-09T09:33:52.615Z,1.77
2018-12-09T09:36:22.423Z,1.67
2018-12-09T09:38:53.000Z,1.57
2018-12-09T09:41:23.948Z,1.30
2018-12-09T09:43:57.084Z,2.10
2018-12-09T09:46:27.720Z,1.57
2018-12-09T09:49:00.416Z,1.67
2018-12-09T09:51:32.372Z,1.80
2018-12-09T09:54:02.693Z,1.50
2018-12-09T09:56:33.906Z,1.70
2018-12-09T09:59:04.989Z,1.73
2018-12-09T10:01:35.242Z,2.00
2018-12-09T10:04:05.244Z,1.80
2018-12-09T10:06:35.655Z,2.20
2018-12-09T10:09:07.786Z,2.37
2018-12-09T10:11:38.096Z,1.70
2018-12-09T10:14:10.534Z,1.67
2018-12-09T10:16:42.337Z,1.83
2018-12-09T10:19:13.507Z,1.97
2018-12-09T10:21:44.222Z,1.70
2018-12-09T10:24:17.506Z,2.53
2018-12-09T10:26:48.090Z,2.03
2018-12-09T10:29:18.667Z,2.17
2018-12-09T10:31:49.249Z,1.80
2018-12-09T10:34:20.361Z,1.63
2018-12-09T10:36:51.004Z,1.93
2018-12-09T10:39:21.629Z,1.77
2018-12-09T10:41:51.773Z,1.57
2018-12-09T10:44:22.747Z,1.70
2018-12-09T10:46:53.741Z,2.00
2018-12-09T10:49:25.383Z,1.53
2018-12-09T10:51:58.096Z,1.87
2018-12-09T10:54:28.633Z,1.67
2018-12-09T10:57:00.712Z,1.90
2018-12-09T10:59:30.789Z,1.30
2018-12-09T11:02:13.399Z,1.70
2018-12-09T11:04:45.261Z,1.77
2018-12-09T11:07:15.945Z,1.30
2018-12-09T11:09:46.010Z,1.30
2018-12-09T11:12:17.501Z,1.63
2018-12-09T11:14:49.328Z,1.53
2018-12-09T11:17:19.907Z,1.47
2018-12-09T11:19:50.593Z,1.50
2018-12-09T11:22:22.201Z,1.50
2018-12-09T11:24:52.997Z,1.57
2018-12-09T11:27:22.889Z,1.50
2018-12-09T11:29:55.112Z,2.10
2018-12-09T11:32:28.264Z,1.73
2018-12-09T11:34:59.879Z,2.10
2018-12-09T11:37:30.650Z,9.33
2018-12-09T11:40:00.715Z,2.70
2018-12-09T11:42:30.802Z,1.97
2018-12-09T11:45:02.189Z,1.90
2018-12-09T11:47:33.697Z,2.07
2018-12-09T11:50:04.537Z,1.43
2018-12-09T11:52:35.265Z,1.33
2018-12-09T11:55:06.800Z,1.83
2018-12-09T11:57:38.589Z,1.57
2018-12-09T12:00:15.458Z,1.70
2018-12-09T12:02:46.036Z,1.40
2018-12-09T12:05:17.209Z,1.33
2018-12-09T12:07:48.429Z,1.33
2018-12-09T12:10:19.741Z,1.50
2018-12-09T12:12:51.499Z,1.73
2018-12-09T12:15:21.762Z,1.50
2018-12-09T12:17:51.776Z,1.60
2018-12-09T12:20:22.490Z,1.27
2018-12-09T12:22:53.228Z,2.00
2018-12-09T12:25:23.014Z,1.50
2018-12-09T12:27:53.681Z,1.33
2018-12-09T12:30:26.299Z,2.10
2018-12-09T12:32:56.918Z,1.40
2018-12-09T12:35:28.535Z,1.10
2018-12-09T12:38:00.033Z,1.30
2018-12-09T12:40:30.739Z,1.17
2018-12-09T12:43:02.300Z,1.40
2018-12-09T12:45:33.900Z,1.30
2018-12-09T12:48:05.916Z,1.60
2018-12-09T12:50:36.625Z,1.63
2018-12-09T12:53:09.214Z,1.50
2018-12-09T12:55:40.382Z,1.80
2018-12-09T12:58:15.352Z,1.33
2018-12-09T13:00:45.377Z,2.30
2018-12-09T13:03:19.157Z,1.90
2018-12-09T13:05:51.369Z,1.50
2018-12-09T13:08:22.376Z,1.60
2018-12-09T13:10:53.583Z,1.30
2018-12-09T13:13:23.780Z,1.20
2018-12-09T13:15:53.735Z,1.50
2018-12-09T13:18:25.213Z,1.27
2018-12-09T13:20:55.477Z,1.77
2018-12-09T13:23:26.835Z,1.30
2018-12-09T13:25:57.178Z,1.50
2018-12-09T13:28:28.260Z,1.80
2018-12-09T13:30:59.888Z,1.93
2018-12-09T13:33:31.982Z,2.40
2018-12-09T13:36:03.777Z,1.50
2018-12-09T13:38:34.293Z,2.17
2018-12-09T13:41:07.615Z,2.70
2018-12-09T13:43:39.196Z,1.70
2018-12-09T13:46:09.205Z,1.60
2018-12-09T13:48:40.155Z,1.90
2018-12-09T13:51:11.831Z,2.50
2018-12-09T13:53:43.777Z,1.70
2018-12-09T13:56:14.444Z,1.40
2018-12-09T13:58:44.700Z,1.10
2018-12-09T14:01:15.283Z,1.83
2018-12-09T14:03:48.228Z,2.20
2018-12-09T14:06:18.285Z,1.20
2018-12-09T14:08:48.252Z,1.47
2018-12-09T14:11:23.403Z,1.60
2018-12-09T14:13:54.240Z,1.40
2018-12-09T14:16:24.782Z,0.97
2018-12-09T14:18:55.898Z,1.10
2018-12-09T14:21:26.403Z,1.67
2018-12-09T14:24:00.367Z,1.93
2018-12-09T14:26:31.169Z,1.73
2018-12-09T14:29:02.694Z,1.83
2018-12-09T14:31:34.203Z,1.90
2018-12-09T14:34:06.165Z,4.10
2018-12-09T14:36:37.766Z,1.87
2018-12-09T14:39:09.154Z,3.00
2018-12-09T14:41:40.850Z,2.00
2018-12-09T14:44:12.558Z,1.93
2018-12-09T14:46:42.650Z,2.90
2018-12-09T14:49:17.498Z,2.47
2018-12-09T14:51:47.864Z,3.47
2018-12-09T14:54:18.056Z,2.23
2018-12-09T14:56:49.053Z,2.23
2018-12-09T14:59:20.561Z,2.27
2018-12-09T15:01:56.632Z,2.00
2018-12-09T15:04:27.045Z,2.13
2018-12-09T15:06:57.176Z,2.90
2018-12-09T15:09:28.109Z,1.60
2018-12-09T15:12:00.009Z,1.80
2018-12-09T15:14:33.286Z,2.10
2018-12-09T15:17:04.814Z,1.70
2018-12-09T15:19:37.594Z,1.70
2018-12-09T15:22:08.319Z,1.93
2018-12-09T15:24:41.503Z,2.07
2018-12-09T15:27:11.820Z,2.00
2018-12-09T15:29:43.117Z,1.87
2018-12-09T15:32:13.816Z,3.03
2018-12-09T15:34:44.960Z,2.50
2018-12-09T15:37:16.220Z,2.20
2018-12-09T15:39:47.332Z,2.13
2018-12-09T15:42:19.242Z,2.93
2018-12-09T15:44:51.434Z,2.30
2018-12-09T15:47:21.939Z,3.03
2018-12-09T15:49:53.922Z,2.00
2018-12-09T15:52:25.352Z,2.30
2018-12-09T15:54:56.008Z,2.03
2018-12-09T15:57:27.029Z,1.80
2018-12-09T15:59:57.913Z,2.97
2018-12-09T16:02:29.612Z,2.87
2018-12-09T16:05:00.425Z,2.20
2018-12-09T16:07:30.697Z,1.77
2018-12-09T16:10:01.427Z,1.73
2018-12-09T16:12:34.731Z,2.73
2018-12-09T16:15:05.392Z,1.80
2018-12-09T16:17:36.862Z,1.90
2018-12-09T16:20:10.131Z,2.10
2018-12-09T16:22:41.501Z,1.97
2018-12-09T16:25:12.852Z,2.30
2018-12-09T16:27:43.220Z,2.30
2018-12-09T16:30:13.143Z,3.10
2018-12-09T16:32:43.442Z,2.53
2018-12-09T16:35:16.413Z,2.77
2018-12-09T16:37:48.031Z,3.00
2018-12-09T16:40:19.892Z,2.47
2018-12-09T16:42:52.914Z,2.40
2018-12-09T16:45:23.186Z,2.57
2018-12-09T16:47:54.353Z,2.03
2018-12-09T16:50:26.320Z,1.90
2018-12-09T16:52:57.468Z,2.20
2018-12-09T16:55:29.537Z,4.30
2018-12-09T16:58:01.395Z,2.40
2018-12-09T17:00:33.272Z,2.80
2018-12-09T17:03:03.144Z,6.30
2018-12-09T17:05:35.185Z,3.93
2018-12-09T17:08:07.788Z,2.00
2018-12-09T17:10:38.073Z,3.70
2018-12-09T17:13:08.609Z,3.13
2018-12-09T17:15:39.721Z,3.43
2018-12-09T17:18:10.730Z,4.23
2018-12-09T17:20:41.930Z,4.60
2018-12-09T17:23:12.178Z,3.70
2018-12-09T17:25:42.473Z,3.33
2018-12-09T17:28:13.576Z,3.10
2018-12-09T17:30:43.567Z,3.37
2018-12-09T17:33:15.190Z,3.70
2018-12-09T17:35:45.438Z,2.40
2018-12-09T17:38:16.546Z,3.30
2018-12-09T17:40:48.938Z,3.40
2018-12-09T17:43:22.424Z,3.97
2018-12-09T17:45:52.819Z,2.97
2018-12-09T17:48:23.949Z,3.77
2018-12-09T17:50:54.302Z,3.87
2018-12-09T17:53:25.704Z,2.93
2018-12-09T17:55:57.485Z,5.17
2018-12-09T17:58:28.672Z,4.50
2018-12-09T18:01:00.587Z,3.30
2018-12-09T18:03:31.040Z,3.20
2018-12-09T18:06:03.844Z,4.07
2018-12-09T18:08:37.318Z,2.77
2018-12-09T18:11:08.123Z,2.60
2018-12-09T18:13:38.730Z,3.03
2018-12-09T18:16:08.333Z,2.33
2018-12-09T18:18:39.481Z,2.70
2018-12-09T18:21:09.797Z,2.60
2018-12-09T18:23:42.234Z,3.77
2018-12-09T18:26:12.886Z,2.70
2018-12-09T18:28:43.049Z,2.97
2018-12-09T18:31:13.093Z,6.17
2018-12-09T18:33:44.201Z,3.63
2018-12-09T18:36:15.874Z,2.73
2018-12-09T18:38:46.871Z,2.80
2018-12-09T18:41:17.968Z,2.50
2018-12-09T18:43:48.266Z,2.10
2018-12-09T18:46:17.920Z,2.53
2018-12-09T18:48:47.874Z,1.90
2018-12-09T18:51:19.579Z,2.03
2018-12-09T18:53:50.518Z,1.80
2018-12-09T18:56:24.005Z,2.00
2018-12-09T18:58:53.996Z,2.40
2018-12-09T19:01:24.221Z,1.93
2018-12-09T19:03:54.249Z,2.70
2018-12-09T19:06:24.484Z,2.30
2018-12-09T19:08:55.647Z,2.63
2018-12-09T19:11:27.297Z,2.40
2018-12-09T19:13:58.800Z,3.10
2018-12-09T19:16:29.034Z,2.53
2018-12-09T19:18:59.206Z,2.80
2018-12-09T19:21:30.532Z,2.93
2018-12-09T19:24:02.100Z,3.73
2018-12-09T19:26:32.889Z,3.70
2018-12-09T19:29:03.738Z,3.60
2018-12-09T19:31:34.730Z,3.10
2018-12-09T19:34:05.601Z,4.03
2018-12-09T19:36:35.562Z,3.47
2018-12-09T19:39:07.885Z,3.03
2018-12-09T19:41:39.659Z,3.67
2018-12-09T19:44:09.746Z,3.50
2018-12-09T19:46:39.460Z,2.93
2018-12-09T19:49:10.934Z,3.07
2018-12-09T19:51:41.226Z,3.63
2018-12-09T19:54:11.760Z,3.23
2018-12-09T19:56:42.865Z,3.27
2018-12-09T19:59:14.231Z,3.60
2018-12-09T20:01:46.078Z,2.57
2018-12-09T20:04:16.152Z,2.40
2018-12-09T20:06:47.076Z,2.47
2018-12-09T20:09:17.225Z,3.90
2018-12-09T20:11:51.194Z,2.80
2018-12-09T20:14:22.136Z,2.97
2018-12-09T20:16:56.143Z,4.20
2018-12-09T20:19:25.986Z,3.50
2018-12-09T20:21:57.224Z,3.93
2018-12-09T20:24:29.349Z,3.53
2018-12-09T20:26:59.169Z,2.90
2018-12-09T20:29:29.268Z,3.63
2018-12-09T20:32:01.277Z,3.47
2018-12-09T20:34:35.024Z,2.60
2018-12-09T20:37:07.031Z,2.53
2018-12-09T20:39:37.821Z,1.83
2018-12-09T20:42:07.700Z,3.23
2018-12-09T20:44:39.360Z,3.37
2018-12-09T20:47:09.584Z,3.03
2018-12-09T20:49:39.415Z,2.63
2018-12-09T20:52:09.539Z,1.90
2018-12-09T20:54:40.946Z,2.33
2018-12-09T20:57:12.143Z,1.67
2018-12-09T20:59:43.585Z,2.10
2018-12-09T21:02:16.485Z,1.93
2018-12-09T21:04:46.341Z,1.80
2018-12-09T21:07:17.781Z,2.60
2018-12-09T21:09:47.521Z,2.47
2018-12-09T21:12:18.433Z,2.53
2018-12-09T21:14:48.593Z,3.40
2018-12-09T21:17:20.961Z,2.10
2018-12-09T21:19:51.757Z,2.00
2018-12-09T21:22:24.620Z,2.03
2018-12-09T21:24:55.062Z,2.60
2018-12-09T21:27:26.027Z,2.97
2018-12-09T21:29:57.412Z,2.83
2018-12-09T21:32:28.266Z,2.30
2018-12-09T21:34:58.957Z,2.23
2018-12-09T21:37:29.663Z,2.40
2018-12-09T21:40:00.380Z,4.10
2018-12-09T21:42:32.983Z,2.90
2018-12-09T21:45:03.637Z,2.77
2018-12-09T21:47:34.669Z,2.60
2018-12-09T21:50:07.316Z,3.20
2018-12-09T21:52:37.414Z,2.93
2018-12-09T21:55:07.852Z,2.90
2018-12-09T21:57:39.104Z,2.30
2018-12-09T22:00:11.577Z,2.03
2018-12-09T22:02:41.611Z,1.60
2018-12-09T22:05:11.406Z,2.10
2018-12-09T22:07:41.797Z,2.03
2018-12-09T22:10:14.656Z,1.67
2018-12-09T22:12:45.153Z,2.23
2018-12-09T22:15:15.125Z,1.80
2018-12-09T22:17:45.215Z,2.20
2018-12-09T22:20:16.166Z,1.90
2018-12-09T22:22:46.394Z,2.67
2018-12-09T22:25:16.235Z,2.17
2018-12-09T22:27:46.157Z,2.40
2018-12-09T22:30:18.134Z,2.10
2018-12-09T22:32:48.690Z,1.40
2018-12-09T22:35:18.755Z,3.93
2018-12-09T22:37:48.679Z,2.77
2018-12-09T22:40:21.097Z,3.10
2018-12-09T22:42:51.055Z,2.33
2018-12-09T22:45:21.885Z,3.70
2018-12-09T22:47:51.928Z,3.10
2018-12-09T22:50:23.880Z,2.10
2018-12-09T22:52:53.798Z,2.10
2018-12-09T22:55:23.824Z,1.80
2018-12-09T22:57:54.072Z,2.00
2018-12-09T23:00:28.297Z,1.67
2018-12-09T23:03:03.930Z,2.03
2018-12-09T23:05:34.256Z,2.03
2018-12-09T23:08:04.668Z,2.40
2018-12-09T23:10:34.769Z,2.20
2018-12-09T23:13:04.804Z,1.50
2018-12-09T23:15:34.686Z,3.60
2018-12-09T23:18:04.434Z,2.73
2018-12-09T23:20:35.784Z,3.87
2018-12-09T23:23:06.181Z,2.70
2018-12-09T23:25:36.030Z,2.90
2018-12-09T23:28:05.720Z,2.90
2018-12-09T23:30:36.300Z,2.00
2018-12-09T23:33:06.570Z,2.20
2018-12-09T23:35:36.800Z,2.80
2018-12-09T23:38:07.150Z,2.47
2018-12-09T23:40:36.714Z,1.90
2018-12-09T23:43:06.617Z,2.07
2018-12-09T23:45:36.540Z,2.30
2018-12-09T23:48:06.481Z,2.17
2018-12-09T23:50:37.158Z,1.80
2018-12-09T23:53:07.555Z,1.77
2018-12-09T23:55:37.384Z,1.87
2018-12-09T23:58:07.376Z,2.70
